Decoded Metar for KPQI (PRESQUE ISLE in ME, USA) (IATA:PQI) | Meteo·Mobile Aviation Weather
aviador You're here:

KPQI Decoded Metar

PRESQUE ISLE in ME, USA
Report Time2019-03-19 18:56:00
UTC Time2019-03-19 19:18:34
Flight Rules vfr VFR
Wind330° at 08 Gusting to 16 kt
W.Decomp.*RWY 01: 7.5 kt HW 2.7 kt LCW
RWY 28: 2.7 kt HW 7.5 kt RCW
W.Rank330° ranks 4
Current wind is below 330° avg. (9.5)
Visibility9999 m
Phenomena:N/A
Clouds:N/A
Expected CloudBase > 5,600 ft AGL from Temp-Dew spread
CeilingNone
Temp-2°C (ISA -16)
Dew Point-16°C (34% RH)
AAT-8.3°C
QNH1024 hPa
Density Alt-1,837 ft
Elevation479 ft
Report Wrong Elevation
Raw Report
KPQI 191856Z AUTO 33008G16KT 10SM CLR M02/M16 A3023 RMK AO2 SLP285
T10221156 FZRANO=

Extra information for KPQI:More info

Metar Taf Metar & Taf Last 4 Metars F.Rules Stats Wind Profile Meteogram Temp Stats Airport Information Weather charts Add Link Nearby VenuesMetar ALERT Operation Metar Decoded Social comments

AIRNAV info for KPQI